Airfield :
LOGIN :

Register | Disclaimer

   EN    FR    IT 

 










Legend :    VFR   Marginal VFR   IFR   Intensive IFR   Very Intensive IFR
Visi :
Ceiling :
>= 8 km
>= 3000ft
5 to 8 km
1000 to 3000 ft
1500m to 5 km
500 to 1000 ft
800 to 1500m
200 to 500 ft
< 800m
< 200 ft
Symbols :   Thunderstorms  Fog  Heavy snow  Heavy precipitations  Wind > 20 kt
SIGMETs :     Misc.  Thunderstorms  Icing  Turbulence  Mountain Waves  Volcanic Ashes







- Airport Elevation : 285 ft
- IATA code : GOZ


LBGO - Gorna Oryahovitsa

CURRENT METAR :
  • 250500Z AUTO 10008KT 9999 NCD 01/M03 Q1014 NOSIG

EXPIRED METARs :
  • 250430Z AUTO 10008KT 9999 NCD M01/M04 Q1014 NOSIG
  • 250400Z AUTO 11007KT 9999 NCD M01/M03 Q1015 NOSIG
  • 250330Z AUTO 10007KT 9999 NCD 00/M04 Q1015
  • 250300Z AUTO 11007KT 9999 NCD M01/M03 Q1015
  • 250230Z AUTO 12003KT 100V160 9999 NCD M01/M03 Q1015

TAF TAF LBGO
Valid from the 25 at 00:00 until the 26 at 00:00 UTC


242300Z 2500/2524 VRB04KT CAVOK
TEMPO 2502/2506 3000 BR SCT012
BECMG 2509/2511 30010KT
No reported NOTAMs for that airfield.



MET'MAP, your aeronautical weather chart ! - Copyright ORBIFLY December 2007 - Disclaimer

ORBIFLY MET'MAP TEAM :

Programming & Development : Alexandra Zaïnal
Concept & Development : Baudouin d'Aumeries
Co-Development & Prog : Marc-Olivier Méhu
Technical & hardware support : Manuel Goepfert

Contact : metmap@orbifly.com




SOURCES & CREDITS :

   NOAA